• Join FlightAware (Why Join?)
  • Login
  • US Flag 
10:42AM EST


 

Airport Tracker/Info


-or-


 

Live Flight TrackerFlight Track Log ✈ EJA831 ✈ 09-Dec-2013 ✈ KCRW - KCHA

Flight Track Log - Related Links

Times and Time Zones

All times are in EST time to prevent confusion due to time zone crossing. See the EJA831 flight status page for this flight to view local times or setup timezone preferences in your user account.

Time Position Orientation Groundspeed Altitude Reporting Facility
EST Latitude Longitude Course Direction KTS MPH feet Rate Location/Type
03:29PM 38.3542 -81.6228 218° Southwest 202 232 3,300  Level Indianapolis Center
03:30PM 38.3036 -81.6703 216° Southwest 224 258 4,600 1,740 Climbing Indianapolis Center
03:32PM 38.2489 -81.7233 217° Southwest 241 277 6,900 1,920 Climbing Indianapolis Center
03:33PM 38.1981 -81.7722 217° Southwest 229 264 8,600 1,740 Climbing Indianapolis Center
03:34PM 38.1453 -81.8217 216° Southwest 232 267 10,600 2,340 Climbing Indianapolis Center
03:35PM 38.0304 -81.9872 218° Southwest  Level Estimated
03:35PM 38.0900 -81.8750 217° Southwest 247 284 13,400  Level Indianapolis Center
03:36PM 38.0244 -81.9389 218° Southwest 247 284 15,600 2,040 Climbing Indianapolis Center
03:37PM 37.9628 -81.9975 217° Southwest 271 312 17,700 1,560 Climbing Indianapolis Center
03:38PM 37.9039 -82.0528 217° Southwest 265 305 18,900 1,500 Climbing Indianapolis Center
03:39PM 37.8417 -82.1122 217° Southwest 278 320 20,900 1,860 Climbing Indianapolis Center
03:40PM 37.7775 -82.1708 216° Southwest 284 327 22,800 1,800 Climbing Indianapolis Center
03:41PM 37.7125 -82.2325 217° Southwest 290 334 24,600 1,560 Climbing Indianapolis Center
03:42PM 37.6375 -82.3044 217° Southwest 290 334 26,000 660 Climbing Indianapolis Center
03:43PM 37.5697 -82.3681 217° Southwest 301 346 26,000  Level Indianapolis Center
03:44PM 37.4983 -82.4367 217° Southwest 318 366 26,000  Level Indianapolis Center
03:45PM 37.4281 -82.5036 217° Southwest 317 365 26,000 -360 Level Indianapolis Center
03:46PM 37.3586 -82.5675 216° Southwest 310 357 25,300 -1,080 Descending Indianapolis Center
03:47PM 37.2903 -82.6314 217° Southwest 306 352 23,800 -1,560 Descending Indianapolis Center
03:48PM 37.2117 -82.7053 217° Southwest 303 349 22,100 -900 Descending Indianapolis Center
03:49PM 37.1422 -82.7683 216° Southwest 306 352 22,000 -60 Descending Indianapolis Center
03:50PM 37.0758 -82.8303 217° Southwest 300 345 22,000  Level Indianapolis Center
03:51PM 37.0111 -82.8911 217° Southwest 295 339 22,000  Level Indianapolis Center
03:52PM 36.9456 -82.9522 217° Southwest 300 345 22,000  Level Indianapolis Center
03:53PM 36.8681 -83.0231 216° Southwest 301 346 22,000  Level Indianapolis Center
03:54PM 36.8019 -83.0828 216° Southwest 297 342 22,000  Level Indianapolis Center
03:55PM 36.7350 -83.1444 216° Southwest 299 344 22,000  Level Indianapolis Center
03:56PM 36.6736 -83.2119 221° Southwest 296 341 22,000  Level Indianapolis Center
03:57PM 36.6172 -83.2836 226° Southwest 292 336 22,000  Level Indianapolis Center
03:58PM 36.5594 -83.3556 225° Southwest 294 338 22,000  Level Indianapolis Center
03:59PM 36.4931 -83.4386 225° Southwest 291 335 22,000  Level Indianapolis Center
04:00PM 36.4358 -83.5097 225° Southwest 291 335 22,000  Level Indianapolis Center
04:01PM 36.3706 -83.5908 225° Southwest 310 357 22,000  Level Indianapolis Center
04:02PM 36.3081 -83.6667 224° Southwest 314 361 22,000  Level Indianapolis Center
04:03PM 36.2475 -83.7411 225° Southwest 308 354 22,000  Level Indianapolis Center
04:04PM 36.1878 -83.8150 225° Southwest 305 351 22,000  Level Indianapolis Center
04:06PM 36.1000 -83.9256 226° Southwest 302 348 22,000  Level Atlanta Center
04:07PM 36.0394 -83.9978 224° Southwest 302 348 22,000  Level Atlanta Center
04:08PM 35.9789 -84.0722 225° Southwest 302 348 22,000  Level Atlanta Center
04:09PM 35.9186 -84.1439 224° Southwest 302 348 22,000  Level Atlanta Center
04:10PM 35.8578 -84.2181 225° Southwest 302 348 22,000 -300 Level Atlanta Center
04:11PM 35.7972 -84.2922 225° Southwest 302 348 21,400 -1,020 Descending Atlanta Center
04:12PM 35.7408 -84.3636 226° Southwest 302 348 20,000 -1,380 Descending Atlanta Center
04:13PM 35.6800 -84.4350 224° Southwest 302 348 18,700 -1,260 Descending Atlanta Center
04:14PM 35.6214 -84.5036 224° Southwest 302 348 17,500 -1,260 Descending Atlanta Center
04:15PM 35.5628 -84.5747 225° Southwest 302 348 16,200 -1,320 Descending Atlanta Center
04:16PM 35.5039 -84.6458 225° Southwest 302 348 14,900 -1,200 Descending Atlanta Center
04:17PM 35.4472 -84.7144 225° Southwest 302 348 13,600 -1,320 Descending Atlanta Center
04:18PM 35.3800 -84.7978 225° Southwest 302 348 12,000 -2,160 Descending Atlanta Center
04:19PM 35.3275 -84.8583 223° Southwest 273 314 9,300 -540 Descending Atlanta Center
04:20PM 35.2833 -84.9192 228° Southwest 252 290 11,000 -3,120 Climbing Atlanta Center
04:21PM 35.2472 -84.9925 239° Southwest 252 290 3,100 -4,020 Descending Atlanta Center
04:22PM 35.2156 -85.0583 240° Southwest 240 276 3,000 -60 Descending Atlanta Center
04:23PM 35.1814 -85.1264 238° Southwest 235 270 3,000  Level Atlanta Center
04:24PM 35.1436 -85.1664 221° Southwest 213 245 3,000  Level Atlanta Center
04:26PM 35.0333 -85.2000 231° Southwest  Level FlightAware Approximate
04:33PM 35.0352 -85.2036 231° Southwest  Level Estimated
04:34PM 35.0333 -85.2000 231° Southwest  Level FlightAware Approximate
04:35PM 35.0352 -85.2036 231° Southwest  Level Estimated